aviador You're here:

VEGT Decoded Metar

GAUHATI in INDIA
Report Time2017-07-26 06:00:00
UTC Time2017-07-26 06:32:50
Flight Rules mvfr MVFR
Wind350° at 08 kt
W.Decomp.*RWY 02: 6.9 kt HW 4 kt LCW
W.Rank350° ranks 21
Current wind is above 350° avg. (5.3)
Visibility6000 m
Phenomena:N/A
Clouds:Scattered 018 Hf
Broken 100 Hf
Expected CloudBase > 2,800 ft AGL from Temp-Dew spread
Ceiling10,000 ft
Temp34°C (ISA +19)
Dew Point27°C (67% RH)
Heat Index45.3°C
QNH1003 hPa
Density Alt3,179 ft
Elevation177 ft
Report Wrong Elevation
Raw Report
METAR VEGT 260600Z 35008KT 6000 SCT018 BKN100 34/27 Q1003 NOSIG=

Extra information for VEGT:More info

Airport Information Weather charts Add Link Nearby Venues Social comments